KIND Airport Diagram

We have created a template for each of the higher traffic airports in the vZID airspace. They include KCMH, KCRW, KCVG, KDAY, KIND, KLEX and KSDF. You wil find usefull information including the airport diagram, weather, and specific airport procedures.

KIND Weather

[Source: ADDS]
METAR
KIND 200725Z 06012KT 1 1/2SM -SN BR BKN008 BKN013 OVC027 M01/M03 A3016 RMK AO2 PRESFR P0001 T10111028 =
KIND 200608Z 2006/2112 10011KT 3/4SM -SN BR OVC020 FM200700 10009KT 1/2SM SN FZFG OVC018 FM201000 10013KT 3SM FZRASN BR OVC010 FM201200 11014KT 6SM -RA BR OVC007 FM201400 13012KT P6SM VCSH OVC006 FM202100 17009KT P6SM VCSH OVC003 FM210000 23009KT P6SM OVC004 FM210300 25009KT P6SM BKN015
TAF
KIND 200608Z 2006/2112 10011KT 3/4SM -SN BR OVC020 FM200700 10009KT 1/2SM SN FZFG OVC018 FM201000 10013KT 3SM FZRASN BR OVC010 FM201200 11014KT 6SM -RA BR OVC007 FM201400 13012KT P6SM VCSH OVC006 FM202100 17009KT P6SM VCSH OVC003 FM210000 23009KT P6SM OVC004 FM210300 25009KT P6SM BKN015 =

KIND Operations

 Calm Wind Configuration is runways 23L/R, up to and including 10kts.

Runway 23L typically departs South and East, Runway 23R typically departs North and West.

FedEx pilots should expect runway 23L or 5R.

Contraflow (noise abatement) procedures from 2200L to 0600L, landing Runway 5R, departing Runway 23R, weather permitted.

New Scenery is available at FlightSim.com and Blueprint Simulations. On initial contact, arriving aircraft should notify the the controller if their scenery has the Midfield Terminal.

FBOs: Signature is near taxiway D and Millionaire is near taxiway A, both are North of taxiway M.

 

JSN Epic template designed by JoomlaShine.com